sensor_id;sensor_type;location;lat;lon;timestamp;temperature;humidity
28532;DHT22;15738;44.860;10.066;2022-12-18T00:00:44;6.10;99.90
28532;DHT22;15738;44.860;10.066;2022-12-18T00:03:29;6.10;99.90
28532;DHT22;15738;44.860;10.066;2022-12-18T00:06:16;6.20;99.90
28532;DHT22;15738;44.860;10.066;2022-12-18T00:09:03;5.80;99.90
28532;DHT22;15738;44.860;10.066;2022-12-18T00:11:49;5.90;99.90
28532;DHT22;15738;44.860;10.066;2022-12-18T00:14:35;6.10;99.90
28532;DHT22;15738;44.860;10.066;2022-12-18T00:17:20;6.10;99.90
28532;DHT22;15738;44.860;10.066;2022-12-18T00:20:07;6.20;99.90
28532;DHT22;15738;44.860;10.066;2022-12-18T00:22:53;6.90;99.90
28532;DHT22;15738;44.860;10.066;2022-12-18T00:25:38;6.10;99.90
28532;DHT22;15738;44.860;10.066;2022-12-18T00:28:24;6.00;99.90
28532;DHT22;15738;44.860;10.066;2022-12-18T00:31:12;6.30;99.90
28532;DHT22;15738;44.860;10.066;2022-12-18T00:33:58;6.80;99.90
28532;DHT22;15738;44.860;10.066;2022-12-18T00:36:47;6.20;99.90
28532;DHT22;15738;44.860;10.066;2022-12-18T00:39:33;6.20;99.90
28532;DHT22;15738;44.860;10.066;2022-12-18T00:45:28;6.30;99.90
28532;DHT22;15738;44.860;10.066;2022-12-18T00:48:14;7.00;99.90
28532;DHT22;15738;44.860;10.066;2022-12-18T00:51:00;6.20;99.90
28532;DHT22;15738;44.860;10.066;2022-12-18T00:53:46;6.20;99.90
28532;DHT22;15738;44.860;10.066;2022-12-18T00:56:31;6.30;99.90
28532;DHT22;15738;44.860;10.066;2022-12-18T00:59:18;6.20;99.90
28532;DHT22;15738;44.860;10.066;2022-12-18T01:02:04;6.50;99.90
28532;DHT22;15738;44.860;10.066;2022-12-18T01:04:50;6.00;99.90
28532;DHT22;15738;44.860;10.066;2022-12-18T01:10:24;6.40;99.90
28532;DHT22;15738;44.860;10.066;2022-12-18T01:13:10;6.40;99.90
28532;DHT22;15738;44.860;10.066;2022-12-18T01:15:56;6.20;99.90
28532;DHT22;15738;44.860;10.066;2022-12-18T01:21:27;5.90;99.90
28532;DHT22;15738;44.860;10.066;2022-12-18T01:24:13;6.20;99.90
28532;DHT22;15738;44.860;10.066;2022-12-18T01:27:00;6.00;99.90
28532;DHT22;15738;44.860;10.066;2022-12-18T01:29:45;5.80;99.90
28532;DHT22;15738;44.860;10.066;2022-12-18T01:32:31;6.00;99.90
28532;DHT22;15738;44.860;10.066;2022-12-18T01:38:04;6.50;99.90
28532;DHT22;15738;44.860;10.066;2022-12-18T01:40:49;6.40;99.90
28532;DHT22;15738;44.860;10.066;2022-12-18T01:43:48;6.50;99.90
28532;DHT22;15738;44.860;10.066;2022-12-18T01:46:35;5.70;99.90
28532;DHT22;15738;44.860;10.066;2022-12-18T01:52:06;6.20;99.90
28532;DHT22;15738;44.860;10.066;2022-12-18T01:54:52;6.30;99.90
28532;DHT22;15738;44.860;10.066;2022-12-18T01:57:39;5.90;99.90
28532;DHT22;15738;44.860;10.066;2022-12-18T02:00:26;6.20;99.90
28532;DHT22;15738;44.860;10.066;2022-12-18T02:03:12;6.40;99.90
28532;DHT22;15738;44.860;10.066;2022-12-18T02:06:11;6.30;99.90
28532;DHT22;15738;44.860;10.066;2022-12-18T02:14:38;6.00;99.90
28532;DHT22;15738;44.860;10.066;2022-12-18T02:18:19;6.20;99.90
28532;DHT22;15738;44.860;10.066;2022-12-18T02:20:54;5.80;99.90
28532;DHT22;15738;44.860;10.066;2022-12-18T02:26:38;5.70;99.90
28532;DHT22;15738;44.860;10.066;2022-12-18T02:32:30;6.00;99.90
28532;DHT22;15738;44.860;10.066;2022-12-18T02:35:22;6.00;99.90
28532;DHT22;15738;44.860;10.066;2022-12-18T02:38:12;5.90;99.90
28532;DHT22;15738;44.860;10.066;2022-12-18T02:41:02;6.00;99.90
28532;DHT22;15738;44.860;10.066;2022-12-18T02:43:55;5.80;99.90
28532;DHT22;15738;44.860;10.066;2022-12-18T02:46:46;6.10;99.90
28532;DHT22;15738;44.860;10.066;2022-12-18T02:52:53;5.70;99.90
28532;DHT22;15738;44.860;10.066;2022-12-18T02:56:13;5.80;99.90
28532;DHT22;15738;44.860;10.066;2022-12-18T02:59:06;5.70;99.90
28532;DHT22;15738;44.860;10.066;2022-12-18T03:07:56;5.80;99.90
28532;DHT22;15738;44.860;10.066;2022-12-18T03:10:52;6.10;99.90
28532;DHT22;15738;44.860;10.066;2022-12-18T03:13:48;6.10;99.90
28532;DHT22;15738;44.860;10.066;2022-12-18T03:16:36;5.80;99.90
28532;DHT22;15738;44.860;10.066;2022-12-18T03:19:27;5.80;99.90
28532;DHT22;15738;44.860;10.066;2022-12-18T03:22:16;5.90;99.90
28532;DHT22;15738;44.860;10.066;2022-12-18T03:25:11;5.90;99.90
28532;DHT22;15738;44.860;10.066;2022-12-18T03:28:01;5.70;99.90
28532;DHT22;15738;44.860;10.066;2022-12-18T03:30:53;5.70;99.90
28532;DHT22;15738;44.860;10.066;2022-12-18T03:33:51;5.60;99.90
28532;DHT22;15738;44.860;10.066;2022-12-18T03:36:40;6.10;99.90
28532;DHT22;15738;44.860;10.066;2022-12-18T03:39:25;6.20;99.90
28532;DHT22;15738;44.860;10.066;2022-12-18T03:42:32;5.90;99.90
28532;DHT22;15738;44.860;10.066;2022-12-18T03:48:33;6.00;99.90
28532;DHT22;15738;44.860;10.066;2022-12-18T03:51:44;5.80;99.90
28532;DHT22;15738;44.860;10.066;2022-12-18T03:54:35;6.00;99.90
28532;DHT22;15738;44.860;10.066;2022-12-18T03:57:31;5.90;99.90
28532;DHT22;15738;44.860;10.066;2022-12-18T04:00:22;6.30;99.90
28532;DHT22;15738;44.860;10.066;2022-12-18T04:03:20;6.10;99.90
28532;DHT22;15738;44.860;10.066;2022-12-18T04:06:11;6.10;99.90
28532;DHT22;15738;44.860;10.066;2022-12-18T04:11:47;5.60;99.90
28532;DHT22;15738;44.860;10.066;2022-12-18T04:14:34;6.10;99.90
28532;DHT22;15738;44.860;10.066;2022-12-18T04:17:23;5.60;99.90
28532;DHT22;15738;44.860;10.066;2022-12-18T04:20:09;6.10;99.90
28532;DHT22;15738;44.860;10.066;2022-12-18T04:25:47;6.80;99.90
28532;DHT22;15738;44.860;10.066;2022-12-18T04:28:41;5.80;99.90
28532;DHT22;15738;44.860;10.066;2022-12-18T04:31:27;6.20;99.90
28532;DHT22;15738;44.860;10.066;2022-12-18T04:37:06;6.00;99.90
28532;DHT22;15738;44.860;10.066;2022-12-18T04:39:51;5.90;99.90
28532;DHT22;15738;44.860;10.066;2022-12-18T04:42:44;6.20;99.90
28532;DHT22;15738;44.860;10.066;2022-12-18T04:45:31;6.10;99.90
28532;DHT22;15738;44.860;10.066;2022-12-18T04:51:04;6.20;99.90
28532;DHT22;15738;44.860;10.066;2022-12-18T04:53:49;6.40;99.90
28532;DHT22;15738;44.860;10.066;2022-12-18T04:56:35;6.20;99.90
28532;DHT22;15738;44.860;10.066;2022-12-18T04:59:20;6.40;99.90
28532;DHT22;15738;44.860;10.066;2022-12-18T05:02:06;6.30;99.90
28532;DHT22;15738;44.860;10.066;2022-12-18T05:13:10;6.00;99.90
28532;DHT22;15738;44.860;10.066;2022-12-18T05:15:56;6.10;99.90
28532;DHT22;15738;44.860;10.066;2022-12-18T05:18:42;6.10;99.90
28532;DHT22;15738;44.860;10.066;2022-12-18T05:21:28;6.30;99.90
28532;DHT22;15738;44.860;10.066;2022-12-18T05:24:14;6.10;99.90
28532;DHT22;15738;44.860;10.066;2022-12-18T05:27:00;5.90;99.90
28532;DHT22;15738;44.860;10.066;2022-12-18T05:29:46;6.20;99.90
28532;DHT22;15738;44.860;10.066;2022-12-18T05:32:32;6.00;99.90
28532;DHT22;15738;44.860;10.066;2022-12-18T05:35:17;5.90;99.90
28532;DHT22;15738;44.860;10.066;2022-12-18T05:40:50;6.30;99.90
28532;DHT22;15738;44.860;10.066;2022-12-18T05:43:37;6.70;99.90
28532;DHT22;15738;44.860;10.066;2022-12-18T05:51:56;6.40;99.90
28532;DHT22;15738;44.860;10.066;2022-12-18T05:54:42;6.50;99.90
28532;DHT22;15738;44.860;10.066;2022-12-18T06:00:14;6.10;99.90
28532;DHT22;15738;44.860;10.066;2022-12-18T06:03:01;6.30;99.90
28532;DHT22;15738;44.860;10.066;2022-12-18T06:05:46;5.90;99.90
28532;DHT22;15738;44.860;10.066;2022-12-18T06:11:20;6.30;99.90
28532;DHT22;15738;44.860;10.066;2022-12-18T06:16:52;6.00;99.90
28532;DHT22;15738;44.860;10.066;2022-12-18T06:19:38;6.40;99.90
28532;DHT22;15738;44.860;10.066;2022-12-18T06:22:24;5.90;99.90
28532;DHT22;15738;44.860;10.066;2022-12-18T06:25:09;6.20;99.90
28532;DHT22;15738;44.860;10.066;2022-12-18T06:30:45;6.00;99.90
28532;DHT22;15738;44.860;10.066;2022-12-18T06:33:32;6.30;99.90
28532;DHT22;15738;44.860;10.066;2022-12-18T06:36:18;6.20;99.90
28532;DHT22;15738;44.860;10.066;2022-12-18T06:39:03;5.80;99.90
28532;DHT22;15738;44.860;10.066;2022-12-18T06:41:50;5.60;99.90
28532;DHT22;15738;44.860;10.066;2022-12-18T06:47:21;5.80;99.90
28532;DHT22;15738;44.860;10.066;2022-12-18T06:50:07;5.60;99.90
28532;DHT22;15738;44.860;10.066;2022-12-18T06:52:53;6.00;99.90
28532;DHT22;15738;44.860;10.066;2022-12-18T06:55:38;6.00;99.90
28532;DHT22;15738;44.860;10.066;2022-12-18T07:01:12;6.00;99.90
28532;DHT22;15738;44.860;10.066;2022-12-18T07:03:59;6.20;99.90
28532;DHT22;15738;44.860;10.066;2022-12-18T07:06:45;7.00;99.90
28532;DHT22;15738;44.860;10.066;2022-12-18T07:09:30;5.90;99.90
28532;DHT22;15738;44.860;10.066;2022-12-18T07:12:16;6.00;99.90
28532;DHT22;15738;44.860;10.066;2022-12-18T07:15:02;5.70;99.90
28532;DHT22;15738;44.860;10.066;2022-12-18T07:17:48;6.00;99.90
28532;DHT22;15738;44.860;10.066;2022-12-18T07:23:20;6.10;99.90
28532;DHT22;15738;44.860;10.066;2022-12-18T07:26:08;6.20;99.90
28532;DHT22;15738;44.860;10.066;2022-12-18T07:28:57;6.10;99.90
28532;DHT22;15738;44.860;10.066;2022-12-18T07:31:43;7.10;99.90
28532;DHT22;15738;44.860;10.066;2022-12-18T07:34:29;6.00;99.90
28532;DHT22;15738;44.860;10.066;2022-12-18T07:42:47;6.00;99.90
28532;DHT22;15738;44.860;10.066;2022-12-18T07:45:33;6.10;99.90
28532;DHT22;15738;44.860;10.066;2022-12-18T07:51:06;6.10;99.90
28532;DHT22;15738;44.860;10.066;2022-12-18T07:53:51;6.10;99.90
28532;DHT22;15738;44.860;10.066;2022-12-18T07:56:37;6.10;99.90
28532;DHT22;15738;44.860;10.066;2022-12-18T08:02:09;5.70;99.90
28532;DHT22;15738;44.860;10.066;2022-12-18T08:04:56;6.10;99.90
28532;DHT22;15738;44.860;10.066;2022-12-18T08:10:28;6.10;99.90
28532;DHT22;15738;44.860;10.066;2022-12-18T08:16:02;6.20;99.90
28532;DHT22;15738;44.860;10.066;2022-12-18T08:18:48;6.30;99.90
28532;DHT22;15738;44.860;10.066;2022-12-18T08:24:21;6.30;99.90
28532;DHT22;15738;44.860;10.066;2022-12-18T08:27:06;6.30;99.90
28532;DHT22;15738;44.860;10.066;2022-12-18T08:30:13;6.30;99.90
28532;DHT22;15738;44.860;10.066;2022-12-18T08:32:58;6.50;99.90
28532;DHT22;15738;44.860;10.066;2022-12-18T08:35:44;6.40;99.90
28532;DHT22;15738;44.860;10.066;2022-12-18T08:38:32;6.50;99.90
28532;DHT22;15738;44.860;10.066;2022-12-18T08:41:18;5.90;99.90
28532;DHT22;15738;44.860;10.066;2022-12-18T08:44:03;6.50;99.90
28532;DHT22;15738;44.860;10.066;2022-12-18T08:47:08;7.60;99.90
28532;DHT22;15738;44.860;10.066;2022-12-18T08:49:54;6.70;99.90
28532;DHT22;15738;44.860;10.066;2022-12-18T08:55:25;6.80;99.90
28532;DHT22;15738;44.860;10.066;2022-12-18T08:58:11;6.30;99.90
28532;DHT22;15738;44.860;10.066;2022-12-18T09:01:01;6.80;99.90
28532;DHT22;15738;44.860;10.066;2022-12-18T09:03:50;7.10;99.90
28532;DHT22;15738;44.860;10.066;2022-12-18T09:06:36;6.30;99.90
28532;DHT22;15738;44.860;10.066;2022-12-18T09:14:55;6.90;99.90
28532;DHT22;15738;44.860;10.066;2022-12-18T09:17:41;7.10;99.90
28532;DHT22;15738;44.860;10.066;2022-12-18T09:20:26;6.60;99.90
28532;DHT22;15738;44.860;10.066;2022-12-18T09:23:13;6.80;99.90
28532;DHT22;15738;44.860;10.066;2022-12-18T09:25:59;6.50;99.90
28532;DHT22;15738;44.860;10.066;2022-12-18T09:31:31;6.50;99.90
28532;DHT22;15738;44.860;10.066;2022-12-18T09:34:17;6.80;99.90
28532;DHT22;15738;44.860;10.066;2022-12-18T09:37:02;6.80;99.90
28532;DHT22;15738;44.860;10.066;2022-12-18T09:39:48;6.50;99.90
28532;DHT22;15738;44.860;10.066;2022-12-18T09:45:20;6.80;99.90
28532;DHT22;15738;44.860;10.066;2022-12-18T09:48:10;6.90;99.90
28532;DHT22;15738;44.860;10.066;2022-12-18T09:51:04;6.90;99.90
28532;DHT22;15738;44.860;10.066;2022-12-18T09:53:55;6.90;99.90
28532;DHT22;15738;44.860;10.066;2022-12-18T09:56:43;6.90;99.90
28532;DHT22;15738;44.860;10.066;2022-12-18T09:59:38;6.90;99.90
28532;DHT22;15738;44.860;10.066;2022-12-18T10:02:26;7.80;99.90
28532;DHT22;15738;44.860;10.066;2022-12-18T10:05:43;7.00;99.90
28532;DHT22;15738;44.860;10.066;2022-12-18T10:14:57;7.10;99.90
28532;DHT22;15738;44.860;10.066;2022-12-18T10:20:56;6.90;99.90
28532;DHT22;15738;44.860;10.066;2022-12-18T10:27:13;7.40;99.90
28532;DHT22;15738;44.860;10.066;2022-12-18T10:30:04;7.20;99.90
28532;DHT22;15738;44.860;10.066;2022-12-18T10:35:41;6.90;99.90
28532;DHT22;15738;44.860;10.066;2022-12-18T10:38:29;7.10;99.90
28532;DHT22;15738;44.860;10.066;2022-12-18T10:44:17;7.30;99.90
28532;DHT22;15738;44.860;10.066;2022-12-18T10:47:06;7.50;99.90
28532;DHT22;15738;44.860;10.066;2022-12-18T10:49:56;7.40;99.90
28532;DHT22;15738;44.860;10.066;2022-12-18T10:55:35;7.40;99.90
28532;DHT22;15738;44.860;10.066;2022-12-18T10:58:25;7.80;99.90
28532;DHT22;15738;44.860;10.066;2022-12-18T11:01:14;7.20;99.90
28532;DHT22;15738;44.860;10.066;2022-12-18T11:04:07;7.70;99.90
28532;DHT22;15738;44.860;10.066;2022-12-18T11:06:58;7.60;99.90
28532;DHT22;15738;44.860;10.066;2022-12-18T11:09:44;7.30;99.90
28532;DHT22;15738;44.860;10.066;2022-12-18T11:15:30;7.90;99.90
28532;DHT22;15738;44.860;10.066;2022-12-18T11:18:26;8.20;99.90
28532;DHT22;15738;44.860;10.066;2022-12-18T11:21:13;7.60;99.90
28532;DHT22;15738;44.860;10.066;2022-12-18T11:23:59;7.60;99.90
28532;DHT22;15738;44.860;10.066;2022-12-18T11:26:45;7.50;99.90
28532;DHT22;15738;44.860;10.066;2022-12-18T11:29:36;8.20;99.90
28532;DHT22;15738;44.860;10.066;2022-12-18T11:32:40;7.80;99.90
28532;DHT22;15738;44.860;10.066;2022-12-18T11:38:39;8.10;99.90
28532;DHT22;15738;44.860;10.066;2022-12-18T11:41:34;7.90;99.90
28532;DHT22;15738;44.860;10.066;2022-12-18T11:45:33;7.80;99.90
28532;DHT22;15738;44.860;10.066;2022-12-18T11:51:01;7.80;99.90
28532;DHT22;15738;44.860;10.066;2022-12-18T11:56:50;7.70;99.90
28532;DHT22;15738;44.860;10.066;2022-12-18T12:00:00;7.80;99.90
28532;DHT22;15738;44.860;10.066;2022-12-18T12:03:22;7.90;99.90
28532;DHT22;15738;44.860;10.066;2022-12-18T12:06:21;8.10;99.90
28532;DHT22;15738;44.860;10.066;2022-12-18T12:35:55;8.40;99.90
28532;DHT22;15738;44.860;10.066;2022-12-18T12:38:47;8.10;99.90
28532;DHT22;15738;44.860;10.066;2022-12-18T12:41:38;8.60;99.90
28532;DHT22;15738;44.860;10.066;2022-12-18T12:44:55;8.80;99.90
28532;DHT22;15738;44.860;10.066;2022-12-18T12:47:42;8.80;99.90
28532;DHT22;15738;44.860;10.066;2022-12-18T12:50:33;8.70;99.90
28532;DHT22;15738;44.860;10.066;2022-12-18T12:53:26;8.90;99.90
28532;DHT22;15738;44.860;10.066;2022-12-18T12:56:13;8.70;99.90
28532;DHT22;15738;44.860;10.066;2022-12-18T12:59:23;8.20;99.90
28532;DHT22;15738;44.860;10.066;2022-12-18T13:07:53;8.30;99.90
28532;DHT22;15738;44.860;10.066;2022-12-18T13:10:42;8.20;99.90
28532;DHT22;15738;44.860;10.066;2022-12-18T13:13:51;9.90;99.90
28532;DHT22;15738;44.860;10.066;2022-12-18T13:16:38;8.20;99.90
28532;DHT22;15738;44.860;10.066;2022-12-18T13:19:26;8.00;99.90
28532;DHT22;15738;44.860;10.066;2022-12-18T13:22:28;8.10;99.90
28532;DHT22;15738;44.860;10.066;2022-12-18T13:37:40;8.30;99.90
28532;DHT22;15738;44.860;10.066;2022-12-18T13:43:53;8.10;99.90
28532;DHT22;15738;44.860;10.066;2022-12-18T13:46:44;8.30;99.90
28532;DHT22;15738;44.860;10.066;2022-12-18T13:49:40;8.70;99.90
28532;DHT22;15738;44.860;10.066;2022-12-18T13:52:32;7.90;99.90
28532;DHT22;15738;44.860;10.066;2022-12-18T13:55:19;7.80;99.90
28532;DHT22;15738;44.860;10.066;2022-12-18T14:00:53;8.00;99.90
28532;DHT22;15738;44.860;10.066;2022-12-18T14:09:15;7.10;99.90
28532;DHT22;15738;44.860;10.066;2022-12-18T14:12:06;7.20;99.90
28532;DHT22;15738;44.860;10.066;2022-12-18T14:21:05;7.30;99.90
28532;DHT22;15738;44.860;10.066;2022-12-18T14:24:18;7.40;99.90
28532;DHT22;15738;44.860;10.066;2022-12-18T14:27:22;7.30;99.90
28532;DHT22;15738;44.860;10.066;2022-12-18T14:30:29;7.50;99.90
28532;DHT22;15738;44.860;10.066;2022-12-18T14:36:04;7.30;99.90
28532;DHT22;15738;44.860;10.066;2022-12-18T14:38:55;7.30;99.90
28532;DHT22;15738;44.860;10.066;2022-12-18T14:47:33;7.20;99.90
28532;DHT22;15738;44.860;10.066;2022-12-18T14:53:05;7.10;99.90
28532;DHT22;15738;44.860;10.066;2022-12-18T14:55:50;7.20;99.90
28532;DHT22;15738;44.860;10.066;2022-12-18T14:58:36;7.50;99.90
28532;DHT22;15738;44.860;10.066;2022-12-18T15:01:24;7.30;99.90
28532;DHT22;15738;44.860;10.066;2022-12-18T15:04:40;7.30;99.90
28532;DHT22;15738;44.860;10.066;2022-12-18T15:07:44;7.20;99.90
28532;DHT22;15738;44.860;10.066;2022-12-18T15:10:32;7.20;99.90
28532;DHT22;15738;44.860;10.066;2022-12-18T15:13:22;7.20;99.90
28532;DHT22;15738;44.860;10.066;2022-12-18T15:16:11;7.20;99.90
28532;DHT22;15738;44.860;10.066;2022-12-18T15:18:58;7.10;99.90
28532;DHT22;15738;44.860;10.066;2022-12-18T15:21:45;7.20;99.90
28532;DHT22;15738;44.860;10.066;2022-12-18T15:24:32;7.00;99.90
28532;DHT22;15738;44.860;10.066;2022-12-18T15:27:30;7.10;99.90
28532;DHT22;15738;44.860;10.066;2022-12-18T15:30:19;7.10;99.90
28532;DHT22;15738;44.860;10.066;2022-12-18T15:33:26;7.10;99.90
28532;DHT22;15738;44.860;10.066;2022-12-18T15:36:13;7.10;99.90
28532;DHT22;15738;44.860;10.066;2022-12-18T15:39:02;7.10;99.90
28532;DHT22;15738;44.860;10.066;2022-12-18T15:41:51;7.10;99.90
28532;DHT22;15738;44.860;10.066;2022-12-18T15:44:55;7.60;99.90
28532;DHT22;15738;44.860;10.066;2022-12-18T15:47:40;7.20;99.90
28532;DHT22;15738;44.860;10.066;2022-12-18T15:50:29;6.90;99.90
28532;DHT22;15738;44.860;10.066;2022-12-18T15:53:15;6.70;99.90
28532;DHT22;15738;44.860;10.066;2022-12-18T15:56:01;6.80;99.90
28532;DHT22;15738;44.860;10.066;2022-12-18T15:59:11;7.20;99.90
28532;DHT22;15738;44.860;10.066;2022-12-18T16:04:44;6.60;99.90
28532;DHT22;15738;44.860;10.066;2022-12-18T16:07:31;6.80;99.90
28532;DHT22;15738;44.860;10.066;2022-12-18T16:10:17;7.50;99.90
28532;DHT22;15738;44.860;10.066;2022-12-18T16:21:22;6.80;99.90
28532;DHT22;15738;44.860;10.066;2022-12-18T16:24:23;6.90;99.90
28532;DHT22;15738;44.860;10.066;2022-12-18T16:27:09;6.70;99.90
28532;DHT22;15738;44.860;10.066;2022-12-18T16:29:54;7.10;99.90
28532;DHT22;15738;44.860;10.066;2022-12-18T16:32:40;6.60;99.90
28532;DHT22;15738;44.860;10.066;2022-12-18T16:35:27;6.50;99.90
28532;DHT22;15738;44.860;10.066;2022-12-18T16:40:58;6.80;99.90
28532;DHT22;15738;44.860;10.066;2022-12-18T16:52:21;7.00;99.90
28532;DHT22;15738;44.860;10.066;2022-12-18T16:55:07;7.10;99.90
28532;DHT22;15738;44.860;10.066;2022-12-18T16:57:53;6.60;99.90
28532;DHT22;15738;44.860;10.066;2022-12-18T17:00:39;6.60;99.90
28532;DHT22;15738;44.860;10.066;2022-12-18T17:03:25;7.10;99.90
28532;DHT22;15738;44.860;10.066;2022-12-18T17:08:58;6.90;99.90
28532;DHT22;15738;44.860;10.066;2022-12-18T17:14:31;6.70;99.90
28532;DHT22;15738;44.860;10.066;2022-12-18T17:17:17;6.50;99.90
28532;DHT22;15738;44.860;10.066;2022-12-18T17:20:07;7.00;99.90
28532;DHT22;15738;44.860;10.066;2022-12-18T17:25:40;6.60;99.90
28532;DHT22;15738;44.860;10.066;2022-12-18T17:31:17;6.90;99.90
28532;DHT22;15738;44.860;10.066;2022-12-18T17:34:03;7.10;99.90
28532;DHT22;15738;44.860;10.066;2022-12-18T17:42:22;6.70;99.90
28532;DHT22;15738;44.860;10.066;2022-12-18T17:45:08;6.90;99.90
28532;DHT22;15738;44.860;10.066;2022-12-18T17:47:54;7.10;99.90
28532;DHT22;15738;44.860;10.066;2022-12-18T17:53:30;7.10;99.90
28532;DHT22;15738;44.860;10.066;2022-12-18T17:56:18;6.90;99.90
28532;DHT22;15738;44.860;10.066;2022-12-18T17:59:04;6.90;99.90
28532;DHT22;15738;44.860;10.066;2022-12-18T18:01:51;7.10;99.90
28532;DHT22;15738;44.860;10.066;2022-12-18T18:04:37;6.80;99.90
28532;DHT22;15738;44.860;10.066;2022-12-18T18:07:23;7.00;99.90
28532;DHT22;15738;44.860;10.066;2022-12-18T18:10:08;7.00;99.90
28532;DHT22;15738;44.860;10.066;2022-12-18T18:12:55;6.90;99.90
28532;DHT22;15738;44.860;10.066;2022-12-18T18:15:59;6.90;99.90
28532;DHT22;15738;44.860;10.066;2022-12-18T18:18:45;7.00;99.90
28532;DHT22;15738;44.860;10.066;2022-12-18T18:21:32;6.90;99.90
28532;DHT22;15738;44.860;10.066;2022-12-18T18:24:20;6.90;99.90
28532;DHT22;15738;44.860;10.066;2022-12-18T18:27:07;6.90;99.90
28532;DHT22;15738;44.860;10.066;2022-12-18T18:29:53;6.90;99.90
28532;DHT22;15738;44.860;10.066;2022-12-18T18:32:40;6.90;99.90
28532;DHT22;15738;44.860;10.066;2022-12-18T18:35:26;6.90;99.90
28532;DHT22;15738;44.860;10.066;2022-12-18T18:38:32;6.90;99.90
28532;DHT22;15738;44.860;10.066;2022-12-18T18:41:18;6.80;99.90
28532;DHT22;15738;44.860;10.066;2022-12-18T18:44:03;6.80;99.90
28532;DHT22;15738;44.860;10.066;2022-12-18T18:46:49;6.80;99.90
28532;DHT22;15738;44.860;10.066;2022-12-18T18:49:38;6.80;99.90
28532;DHT22;15738;44.860;10.066;2022-12-18T18:52:24;6.80;99.90
28532;DHT22;15738;44.860;10.066;2022-12-18T18:55:10;6.80;99.90
28532;DHT22;15738;44.860;10.066;2022-12-18T18:58:05;6.80;99.90
28532;DHT22;15738;44.860;10.066;2022-12-18T19:01:06;6.70;99.90
28532;DHT22;15738;44.860;10.066;2022-12-18T19:03:53;6.70;99.90
28532;DHT22;15738;44.860;10.066;2022-12-18T19:06:39;6.60;99.90
28532;DHT22;15738;44.860;10.066;2022-12-18T19:09:25;6.50;99.90
28532;DHT22;15738;44.860;10.066;2022-12-18T19:12:11;6.50;99.90
28532;DHT22;15738;44.860;10.066;2022-12-18T19:15:15;6.50;99.90
28532;DHT22;15738;44.860;10.066;2022-12-18T19:18:01;6.60;99.90
28532;DHT22;15738;44.860;10.066;2022-12-18T19:20:58;6.60;99.90
28532;DHT22;15738;44.860;10.066;2022-12-18T19:23:44;6.70;99.90
28532;DHT22;15738;44.860;10.066;2022-12-18T19:26:31;6.70;99.90
28532;DHT22;15738;44.860;10.066;2022-12-18T19:29:17;6.60;99.90
28532;DHT22;15738;44.860;10.066;2022-12-18T19:32:03;6.50;99.90
28532;DHT22;15738;44.860;10.066;2022-12-18T19:34:49;6.40;99.90
28532;DHT22;15738;44.860;10.066;2022-12-18T19:37:34;6.50;99.90
28532;DHT22;15738;44.860;10.066;2022-12-18T19:40:20;6.50;99.90
28532;DHT22;15738;44.860;10.066;2022-12-18T19:43:06;7.30;99.90
28532;DHT22;15738;44.860;10.066;2022-12-18T19:45:55;6.50;99.90
28532;DHT22;15738;44.860;10.066;2022-12-18T19:48:41;6.30;99.90
28532;DHT22;15738;44.860;10.066;2022-12-18T19:51:29;6.50;99.90
28532;DHT22;15738;44.860;10.066;2022-12-18T20:05:24;6.40;99.90
28532;DHT22;15738;44.860;10.066;2022-12-18T20:08:09;7.30;99.90
28532;DHT22;15738;44.860;10.066;2022-12-18T20:10:55;6.50;99.90
28532;DHT22;15738;44.860;10.066;2022-12-18T20:13:41;6.70;99.90
28532;DHT22;15738;44.860;10.066;2022-12-18T20:16:28;6.00;99.90
28532;DHT22;15738;44.860;10.066;2022-12-18T20:19:14;6.50;99.90
28532;DHT22;15738;44.860;10.066;2022-12-18T20:22:00;6.60;99.90
28532;DHT22;15738;44.860;10.066;2022-12-18T20:24:46;6.10;99.90
28532;DHT22;15738;44.860;10.066;2022-12-18T20:30:23;6.60;99.90
28532;DHT22;15738;44.860;10.066;2022-12-18T20:33:08;7.10;99.90
28532;DHT22;15738;44.860;10.066;2022-12-18T20:36:00;6.70;99.90
28532;DHT22;15738;44.860;10.066;2022-12-18T20:38:47;6.80;99.90
28532;DHT22;15738;44.860;10.066;2022-12-18T20:41:33;7.20;99.90
28532;DHT22;15738;44.860;10.066;2022-12-18T20:44:23;6.80;99.90
28532;DHT22;15738;44.860;10.066;2022-12-18T20:47:09;6.40;99.90
28532;DHT22;15738;44.860;10.066;2022-12-18T20:49:54;6.70;99.90
28532;DHT22;15738;44.860;10.066;2022-12-18T20:52:41;6.50;99.90
28532;DHT22;15738;44.860;10.066;2022-12-18T20:55:27;6.60;99.90
28532;DHT22;15738;44.860;10.066;2022-12-18T20:58:13;6.90;99.90
28532;DHT22;15738;44.860;10.066;2022-12-18T21:03:55;6.70;99.90
28532;DHT22;15738;44.860;10.066;2022-12-18T21:06:41;6.40;99.90
28532;DHT22;15738;44.860;10.066;2022-12-18T21:09:31;6.60;99.90
28532;DHT22;15738;44.860;10.066;2022-12-18T21:12:22;6.80;99.90
28532;DHT22;15738;44.860;10.066;2022-12-18T21:15:34;6.80;99.90
28532;DHT22;15738;44.860;10.066;2022-12-18T21:18:20;6.80;99.90
28532;DHT22;15738;44.860;10.066;2022-12-18T21:23:53;6.70;99.90
28532;DHT22;15738;44.860;10.066;2022-12-18T21:26:39;6.60;99.90
28532;DHT22;15738;44.860;10.066;2022-12-18T21:29:30;6.90;99.90
28532;DHT22;15738;44.860;10.066;2022-12-18T21:32:17;6.30;99.90
28532;DHT22;15738;44.860;10.066;2022-12-18T21:35:04;6.30;99.90
28532;DHT22;15738;44.860;10.066;2022-12-18T21:37:50;7.30;99.90
28532;DHT22;15738;44.860;10.066;2022-12-18T21:40:38;6.40;99.90
28532;DHT22;15738;44.860;10.066;2022-12-18T21:43:26;7.70;99.90
28532;DHT22;15738;44.860;10.066;2022-12-18T21:46:37;6.80;99.90
28532;DHT22;15738;44.860;10.066;2022-12-18T21:49:23;7.50;99.90
28532;DHT22;15738;44.860;10.066;2022-12-18T21:54:55;6.60;99.90
28532;DHT22;15738;44.860;10.066;2022-12-18T21:57:41;6.30;99.90
28532;DHT22;15738;44.860;10.066;2022-12-18T22:00:27;6.20;99.90
28532;DHT22;15738;44.860;10.066;2022-12-18T22:03:13;6.10;99.90
28532;DHT22;15738;44.860;10.066;2022-12-18T22:06:04;7.20;99.90
28532;DHT22;15738;44.860;10.066;2022-12-18T22:08:54;6.80;99.90
28532;DHT22;15738;44.860;10.066;2022-12-18T22:11:39;6.90;99.90
28532;DHT22;15738;44.860;10.066;2022-12-18T22:14:25;6.70;99.90
28532;DHT22;15738;44.860;10.066;2022-12-18T22:17:11;6.60;99.90
28532;DHT22;15738;44.860;10.066;2022-12-18T22:19:58;7.40;99.90
28532;DHT22;15738;44.860;10.066;2022-12-18T22:22:44;6.20;99.90
28532;DHT22;15738;44.860;10.066;2022-12-18T22:39:39;6.40;99.90
28532;DHT22;15738;44.860;10.066;2022-12-18T22:42:25;6.20;99.90
28532;DHT22;15738;44.860;10.066;2022-12-18T22:45:11;6.30;99.90
28532;DHT22;15738;44.860;10.066;2022-12-18T22:50:43;6.10;99.90
28532;DHT22;15738;44.860;10.066;2022-12-18T22:53:28;5.90;99.90
28532;DHT22;15738;44.860;10.066;2022-12-18T22:56:14;5.70;99.90